Sunday, May 29, 2016
05:51 UTC
  |  Log In   |  Register Free
Airport Search:

Oroville Municipal Airport
(KOVE)

Oroville Municipal Airport Diagram
No Airport Diagram Available

FAA data valid effective Mar 31 2016 - May 26 2016 (unless otherwise noted).

 
 
 
 
 
 
 
 
 
 
 
 
 
 
Current Aviation Weather for KOVE

Weather Summary


The most recent METAR observation for OVE was updated at: 12:53 UTC
METAR for KOVE is not available. Closest METAR is for KCIC
KOVE  (most recent observation was updatred at 29:04 UTC)
290453Z AUTO 09005KT 10SM CLR 24/09 A2983 RMK AO2 SLP102 T02440089 $

KCIC  (21.5 nm SE)   (most recent observation was updated at 29:05 UTC)
290535Z AUTO 00000KT 10SM CLR 24/07 A2984 RMK AO1

KBAB  (22.8 nm NW)   (most recent observation was updated at 29:04 UTC)
290458Z AUTO 07002KT 10SM CLR 23/06 A2980 RMK AO2 SLP094 T02250057 $

TAF for KOVE is not available.
GlobalAir.com is loading additional information.
 Current Weather at OVE
80.0 F° (26.7 C°)

South winds at 4.6 mph
Pressure:
29.81 in
Humidity:
33%
Wind:
South at 4.6 mph
Dew Point:
48.0 F° (8.9 C°)
Visibility:
10.00 mi
OVE NOAA Radar




Find All Airport Services Find A Hotel Find A Rental Car Find A Golf Course Find A Restaurant $100 Hamburger



Airport Weather Forecast for KOVE

Translated METAR for KOVE (0453 UTC)
METAR:
KOVE 290453Z AUTO 09005KT 10SM CLR 24/09 A2983 RMK AO2 SLP102 T02440089 $
Conditions at:
KOVE (Oroville Muni, CA) observed 0453 UTC 29 May 2016
Temperature:
24°C (75.2°F)
Dewpoint:
9°C (48.2°F) [RH = 38.5]
Pressure:
29.83 inches Hg (1010.2 mb)
pressure at sea level is 102 in Hg
Winds:
from the E (090 degrees) at 5.8 mph (5 knots: 2.6 m/s)
Visibility:
10 mile(s)
Ceiling:
at least 12,000 feet AGL
Clouds:
Clear below 12,000 feet AGL
Remarks:
site is un-manned
SOME DATA ABOVE MAY BE INACCURATE!!!
"$" is an indication the sensor requires maintenance
site is automated and HAS a precipitation sensor

Translated TAF for TAF for OVE is not available. Refer to local area forecast.
FBO's on the Field
FBO Company Facility Photos Services Transportation Aviation Fuel Prices: Prices include tax
Catering Weather Repair Courtesy Rental Type 100LL JetA JetA+ MOGAS 8087
 
Table Mountain Aviation

This FBO has not yet been rated
FS:Epic
Last Updated: May-17
Login to update fuel prices
SS:
Contact Table Mountain AviationMore FBO Information
 
Add another FBO Facility Photos Catering Weather Repair Courtesy Rental Type 100LL JetA JetA+ MOGAS 8087
Services Transportation Aviation Fuel Prices: Prices include tax


model-print
model-print
model-print
model-print